sensor_id;sensor_type;location;lat;lon;timestamp;P1;durP1;ratioP1;P2;durP2;ratioP2
7377;SDS011;3730;50.856;12.776;2022-08-11T00:00:31;2.30;;;2.10;;
7377;SDS011;3730;50.856;12.776;2022-08-11T00:02:59;3.10;;;2.40;;
7377;SDS011;3730;50.856;12.776;2022-08-11T00:05:28;2.80;;;2.60;;
7377;SDS011;3730;50.856;12.776;2022-08-11T00:07:55;2.83;;;2.13;;
7377;SDS011;3730;50.856;12.776;2022-08-11T00:10:26;3.97;;;2.00;;
7377;SDS011;3730;50.856;12.776;2022-08-11T00:12:54;5.07;;;2.27;;
7377;SDS011;3730;50.856;12.776;2022-08-11T00:15:22;2.23;;;2.03;;
7377;SDS011;3730;50.856;12.776;2022-08-11T00:17:59;2.30;;;2.10;;
7377;SDS011;3730;50.856;12.776;2022-08-11T00:20:29;4.07;;;2.30;;
7377;SDS011;3730;50.856;12.776;2022-08-11T00:23:05;3.67;;;2.60;;
7377;SDS011;3730;50.856;12.776;2022-08-11T00:25:44;2.40;;;2.20;;
7377;SDS011;3730;50.856;12.776;2022-08-11T00:30:48;2.20;;;2.10;;
7377;SDS011;3730;50.856;12.776;2022-08-11T00:33:15;4.20;;;2.07;;
7377;SDS011;3730;50.856;12.776;2022-08-11T00:35:41;2.03;;;1.90;;
7377;SDS011;3730;50.856;12.776;2022-08-11T00:38:08;5.17;;;2.53;;
7377;SDS011;3730;50.856;12.776;2022-08-11T00:43:19;2.50;;;2.27;;
7377;SDS011;3730;50.856;12.776;2022-08-11T00:48:28;3.67;;;2.17;;
7377;SDS011;3730;50.856;12.776;2022-08-11T00:51:00;2.83;;;2.50;;
7377;SDS011;3730;50.856;12.776;2022-08-11T00:53:43;3.37;;;2.47;;
7377;SDS011;3730;50.856;12.776;2022-08-11T00:56:56;2.77;;;2.20;;
7377;SDS011;3730;50.856;12.776;2022-08-11T01:02:14;2.53;;;2.10;;
7377;SDS011;3730;50.856;12.776;2022-08-11T01:08:52;2.20;;;2.10;;
7377;SDS011;3730;50.856;12.776;2022-08-11T01:16:08;3.67;;;2.27;;
7377;SDS011;3730;50.856;12.776;2022-08-11T01:45:33;1.93;;;1.83;;
7377;SDS011;3730;50.856;12.776;2022-08-11T01:48:12;2.30;;;2.10;;
7377;SDS011;3730;50.856;12.776;2022-08-11T01:50:50;1.90;;;1.80;;
7377;SDS011;3730;50.856;12.776;2022-08-11T01:53:42;3.50;;;2.03;;
7377;SDS011;3730;50.856;12.776;2022-08-11T02:07:08;2.87;;;1.97;;
7377;SDS011;3730;50.856;12.776;2022-08-11T02:09:49;2.37;;;2.17;;
7377;SDS011;3730;50.856;12.776;2022-08-11T02:15:09;2.57;;;2.03;;
7377;SDS011;3730;50.856;12.776;2022-08-11T02:18:02;2.23;;;2.03;;
7377;SDS011;3730;50.856;12.776;2022-08-11T02:26:07;3.17;;;2.00;;
7377;SDS011;3730;50.856;12.776;2022-08-11T02:28:41;3.40;;;2.10;;
7377;SDS011;3730;50.856;12.776;2022-08-11T02:34:46;2.33;;;2.00;;
7377;SDS011;3730;50.856;12.776;2022-08-11T02:36:49;3.30;;;1.80;;
7377;SDS011;3730;50.856;12.776;2022-08-11T02:39:17;2.30;;;2.10;;
7377;SDS011;3730;50.856;12.776;2022-08-11T03:00:27;5.13;;;2.40;;
7377;SDS011;3730;50.856;12.776;2022-08-11T03:14:06;4.00;;;2.40;;
7377;SDS011;3730;50.856;12.776;2022-08-11T03:25:24;3.10;;;2.53;;
7377;SDS011;3730;50.856;12.776;2022-08-11T03:28:11;4.33;;;2.50;;
7377;SDS011;3730;50.856;12.776;2022-08-11T03:33:24;4.13;;;2.40;;
7377;SDS011;3730;50.856;12.776;2022-08-11T03:44:31;3.57;;;2.10;;
7377;SDS011;3730;50.856;12.776;2022-08-11T03:49:53;6.70;;;3.10;;
7377;SDS011;3730;50.856;12.776;2022-08-11T03:52:27;2.47;;;2.10;;
7377;SDS011;3730;50.856;12.776;2022-08-11T03:55:07;5.00;;;2.30;;
7377;SDS011;3730;50.856;12.776;2022-08-11T04:00:25;3.83;;;2.90;;
7377;SDS011;3730;50.856;12.776;2022-08-11T04:13:49;3.47;;;2.80;;
7377;SDS011;3730;50.856;12.776;2022-08-11T04:17:17;3.67;;;2.57;;
7377;SDS011;3730;50.856;12.776;2022-08-11T04:42:59;3.73;;;2.87;;
7377;SDS011;3730;50.856;12.776;2022-08-11T04:57:21;34.57;;;4.53;;
7377;SDS011;3730;50.856;12.776;2022-08-11T05:00:12;18.90;;;3.40;;
7377;SDS011;3730;50.856;12.776;2022-08-11T05:10:56;14.23;;;4.50;;
7377;SDS011;3730;50.856;12.776;2022-08-11T05:13:28;11.47;;;4.20;;
7377;SDS011;3730;50.856;12.776;2022-08-11T05:16:17;8.13;;;3.10;;
7377;SDS011;3730;50.856;12.776;2022-08-11T05:19:03;4.47;;;2.73;;
7377;SDS011;3730;50.856;12.776;2022-08-11T05:21:54;3.73;;;2.73;;
7377;SDS011;3730;50.856;12.776;2022-08-11T05:27:29;4.30;;;2.47;;
7377;SDS011;3730;50.856;12.776;2022-08-11T05:30:15;4.50;;;2.60;;
7377;SDS011;3730;50.856;12.776;2022-08-11T05:33:08;10.67;;;3.40;;
7377;SDS011;3730;50.856;12.776;2022-08-11T05:36:15;4.27;;;3.00;;
7377;SDS011;3730;50.856;12.776;2022-08-11T05:38:48;3.73;;;2.27;;
7377;SDS011;3730;50.856;12.776;2022-08-11T05:41:34;2.80;;;2.47;;
7377;SDS011;3730;50.856;12.776;2022-08-11T05:44:19;6.20;;;2.53;;
7377;SDS011;3730;50.856;12.776;2022-08-11T05:47:04;4.57;;;2.83;;
7377;SDS011;3730;50.856;12.776;2022-08-11T05:49:50;8.00;;;2.90;;
7377;SDS011;3730;50.856;12.776;2022-08-11T05:52:35;5.83;;;3.00;;
7377;SDS011;3730;50.856;12.776;2022-08-11T05:55:20;28.17;;;5.40;;
7377;SDS011;3730;50.856;12.776;2022-08-11T05:58:06;9.37;;;3.53;;
7377;SDS011;3730;50.856;12.776;2022-08-11T06:00:43;2.90;;;2.47;;
7377;SDS011;3730;50.856;12.776;2022-08-11T06:03:10;4.33;;;2.20;;
7377;SDS011;3730;50.856;12.776;2022-08-11T06:05:37;5.80;;;2.87;;
7377;SDS011;3730;50.856;12.776;2022-08-11T06:08:05;5.30;;;2.50;;
7377;SDS011;3730;50.856;12.776;2022-08-11T06:10:32;5.40;;;2.97;;
7377;SDS011;3730;50.856;12.776;2022-08-11T06:12:59;2.97;;;2.50;;
7377;SDS011;3730;50.856;12.776;2022-08-11T06:15:26;6.53;;;3.67;;
7377;SDS011;3730;50.856;12.776;2022-08-11T06:17:53;4.33;;;2.43;;
7377;SDS011;3730;50.856;12.776;2022-08-11T06:20:20;3.43;;;2.50;;
7377;SDS011;3730;50.856;12.776;2022-08-11T06:22:54;4.00;;;2.90;;
7377;SDS011;3730;50.856;12.776;2022-08-11T06:25:20;4.73;;;2.67;;
7377;SDS011;3730;50.856;12.776;2022-08-11T06:27:47;5.47;;;2.47;;
7377;SDS011;3730;50.856;12.776;2022-08-11T06:30:21;2.97;;;2.40;;
7377;SDS011;3730;50.856;12.776;2022-08-11T06:32:57;7.47;;;3.47;;
7377;SDS011;3730;50.856;12.776;2022-08-11T06:37:55;6.10;;;2.70;;
7377;SDS011;3730;50.856;12.776;2022-08-11T06:40:34;8.07;;;3.10;;
7377;SDS011;3730;50.856;12.776;2022-08-11T06:43:08;5.93;;;2.80;;
7377;SDS011;3730;50.856;12.776;2022-08-11T06:48:01;5.93;;;3.00;;
7377;SDS011;3730;50.856;12.776;2022-08-11T06:50:30;7.77;;;3.23;;
7377;SDS011;3730;50.856;12.776;2022-08-11T06:53:16;4.27;;;2.73;;
7377;SDS011;3730;50.856;12.776;2022-08-11T06:55:44;3.10;;;2.70;;
7377;SDS011;3730;50.856;12.776;2022-08-11T06:58:34;5.70;;;2.63;;
7377;SDS011;3730;50.856;12.776;2022-08-11T07:02:04;5.27;;;2.90;;
7377;SDS011;3730;50.856;12.776;2022-08-11T07:04:13;5.00;;;2.70;;
7377;SDS011;3730;50.856;12.776;2022-08-11T07:07:26;3.90;;;2.13;;
7377;SDS011;3730;50.856;12.776;2022-08-11T07:12:37;3.77;;;2.20;;
7377;SDS011;3730;50.856;12.776;2022-08-11T07:15:26;24.60;;;4.07;;
7377;SDS011;3730;50.856;12.776;2022-08-11T07:18:19;7.70;;;2.80;;
7377;SDS011;3730;50.856;12.776;2022-08-11T07:21:05;9.67;;;2.90;;
7377;SDS011;3730;50.856;12.776;2022-08-11T07:23:51;4.63;;;2.20;;
7377;SDS011;3730;50.856;12.776;2022-08-11T07:26:37;4.27;;;2.30;;
7377;SDS011;3730;50.856;12.776;2022-08-11T07:29:24;4.83;;;2.00;;
7377;SDS011;3730;50.856;12.776;2022-08-11T07:31:51;2.77;;;2.10;;
7377;SDS011;3730;50.856;12.776;2022-08-11T07:34:26;4.63;;;2.20;;
7377;SDS011;3730;50.856;12.776;2022-08-11T07:36:57;3.57;;;2.30;;
7377;SDS011;3730;50.856;12.776;2022-08-11T07:39:25;4.57;;;2.80;;
7377;SDS011;3730;50.856;12.776;2022-08-11T07:41:52;5.63;;;2.00;;
7377;SDS011;3730;50.856;12.776;2022-08-11T07:44:19;3.77;;;1.83;;
7377;SDS011;3730;50.856;12.776;2022-08-11T07:46:47;16.10;;;2.90;;
7377;SDS011;3730;50.856;12.776;2022-08-11T07:49:36;3.90;;;2.10;;
7377;SDS011;3730;50.856;12.776;2022-08-11T07:52:21;11.70;;;2.50;;
7377;SDS011;3730;50.856;12.776;2022-08-11T07:55:14;3.83;;;1.80;;
7377;SDS011;3730;50.856;12.776;2022-08-11T07:57:43;3.20;;;2.27;;
7377;SDS011;3730;50.856;12.776;2022-08-11T08:00:44;3.03;;;1.80;;
7377;SDS011;3730;50.856;12.776;2022-08-11T08:03:36;3.50;;;2.07;;
7377;SDS011;3730;50.856;12.776;2022-08-11T08:06:22;3.70;;;2.30;;
7377;SDS011;3730;50.856;12.776;2022-08-11T08:09:07;13.47;;;2.90;;
7377;SDS011;3730;50.856;12.776;2022-08-11T08:11:52;2.87;;;1.93;;
7377;SDS011;3730;50.856;12.776;2022-08-11T08:14:36;4.23;;;2.40;;
7377;SDS011;3730;50.856;12.776;2022-08-11T08:17:26;4.80;;;2.93;;
7377;SDS011;3730;50.856;12.776;2022-08-11T08:20:11;4.87;;;2.47;;
7377;SDS011;3730;50.856;12.776;2022-08-11T08:22:40;3.93;;;2.20;;
7377;SDS011;3730;50.856;12.776;2022-08-11T08:25:06;2.60;;;2.20;;
7377;SDS011;3730;50.856;12.776;2022-08-11T08:27:36;3.73;;;2.00;;
7377;SDS011;3730;50.856;12.776;2022-08-11T08:30:03;3.33;;;2.33;;
7377;SDS011;3730;50.856;12.776;2022-08-11T08:32:49;5.53;;;2.47;;
7377;SDS011;3730;50.856;12.776;2022-08-11T08:35:17;2.40;;;2.20;;
7377;SDS011;3730;50.856;12.776;2022-08-11T08:37:43;6.10;;;2.50;;
7377;SDS011;3730;50.856;12.776;2022-08-11T08:40:14;4.60;;;2.40;;
7377;SDS011;3730;50.856;12.776;2022-08-11T08:42:46;5.30;;;2.70;;
7377;SDS011;3730;50.856;12.776;2022-08-11T08:45:15;6.13;;;2.50;;
7377;SDS011;3730;50.856;12.776;2022-08-11T08:47:47;5.80;;;2.50;;
7377;SDS011;3730;50.856;12.776;2022-08-11T08:50:20;4.13;;;2.57;;
7377;SDS011;3730;50.856;12.776;2022-08-11T08:52:54;3.97;;;2.60;;
7377;SDS011;3730;50.856;12.776;2022-08-11T08:55:21;2.50;;;2.30;;
7377;SDS011;3730;50.856;12.776;2022-08-11T08:57:48;4.13;;;2.33;;
7377;SDS011;3730;50.856;12.776;2022-08-11T09:00:15;6.47;;;2.33;;
7377;SDS011;3730;50.856;12.776;2022-08-11T09:02:42;3.27;;;2.13;;
7377;SDS011;3730;50.856;12.776;2022-08-11T09:05:09;5.10;;;2.20;;
7377;SDS011;3730;50.856;12.776;2022-08-11T09:07:36;6.20;;;2.50;;
7377;SDS011;3730;50.856;12.776;2022-08-11T09:10:02;3.03;;;2.13;;
7377;SDS011;3730;50.856;12.776;2022-08-11T09:12:30;3.47;;;2.07;;
7377;SDS011;3730;50.856;12.776;2022-08-11T09:14:56;3.63;;;2.30;;
7377;SDS011;3730;50.856;12.776;2022-08-11T09:17:37;4.03;;;2.47;;
7377;SDS011;3730;50.856;12.776;2022-08-11T09:20:05;4.70;;;2.33;;
7377;SDS011;3730;50.856;12.776;2022-08-11T09:22:33;4.50;;;2.13;;
7377;SDS011;3730;50.856;12.776;2022-08-11T09:25:19;5.90;;;2.27;;
7377;SDS011;3730;50.856;12.776;2022-08-11T09:28:05;2.33;;;1.90;;
7377;SDS011;3730;50.856;12.776;2022-08-11T09:30:34;2.30;;;2.10;;
7377;SDS011;3730;50.856;12.776;2022-08-11T09:33:03;2.87;;;2.33;;
7377;SDS011;3730;50.856;12.776;2022-08-11T09:35:37;2.80;;;1.80;;
7377;SDS011;3730;50.856;12.776;2022-08-11T09:38:04;4.50;;;2.57;;
7377;SDS011;3730;50.856;12.776;2022-08-11T09:40:50;4.60;;;2.30;;
7377;SDS011;3730;50.856;12.776;2022-08-11T09:43:18;3.97;;;2.00;;
7377;SDS011;3730;50.856;12.776;2022-08-11T09:46:03;5.30;;;2.20;;
7377;SDS011;3730;50.856;12.776;2022-08-11T09:48:30;2.40;;;2.20;;
7377;SDS011;3730;50.856;12.776;2022-08-11T09:50:59;3.47;;;2.03;;
7377;SDS011;3730;50.856;12.776;2022-08-11T09:53:27;16.13;;;2.73;;
7377;SDS011;3730;50.856;12.776;2022-08-11T09:55:55;5.47;;;2.00;;
7377;SDS011;3730;50.856;12.776;2022-08-11T09:58:21;8.67;;;2.17;;
7377;SDS011;3730;50.856;12.776;2022-08-11T10:00:49;2.53;;;2.00;;
7377;SDS011;3730;50.856;12.776;2022-08-11T10:03:21;2.43;;;1.97;;
7377;SDS011;3730;50.856;12.776;2022-08-11T10:05:50;9.80;;;2.63;;
7377;SDS011;3730;50.856;12.776;2022-08-11T10:08:37;3.93;;;2.30;;
7377;SDS011;3730;50.856;12.776;2022-08-11T10:11:07;2.60;;;2.00;;
7377;SDS011;3730;50.856;12.776;2022-08-11T10:13:36;7.00;;;2.30;;
7377;SDS011;3730;50.856;12.776;2022-08-11T10:16:26;4.50;;;2.17;;
7377;SDS011;3730;50.856;12.776;2022-08-11T10:18:53;10.37;;;2.40;;
7377;SDS011;3730;50.856;12.776;2022-08-11T10:21:24;7.37;;;2.90;;
7377;SDS011;3730;50.856;12.776;2022-08-11T10:23:55;3.17;;;1.97;;
7377;SDS011;3730;50.856;12.776;2022-08-11T10:26:43;3.00;;;2.30;;
7377;SDS011;3730;50.856;12.776;2022-08-11T10:29:22;3.97;;;2.30;;
7377;SDS011;3730;50.856;12.776;2022-08-11T10:32:10;3.73;;;1.93;;
7377;SDS011;3730;50.856;12.776;2022-08-11T10:34:56;7.40;;;2.17;;
7377;SDS011;3730;50.856;12.776;2022-08-11T10:37:28;6.63;;;2.70;;
7377;SDS011;3730;50.856;12.776;2022-08-11T10:40:01;3.47;;;1.87;;
7377;SDS011;3730;50.856;12.776;2022-08-11T10:42:28;2.73;;;2.07;;
7377;SDS011;3730;50.856;12.776;2022-08-11T10:45:13;3.87;;;2.20;;
7377;SDS011;3730;50.856;12.776;2022-08-11T10:47:58;4.93;;;2.13;;
7377;SDS011;3730;50.856;12.776;2022-08-11T10:50:26;2.57;;;2.20;;
7377;SDS011;3730;50.856;12.776;2022-08-11T10:53:29;2.03;;;1.83;;
7377;SDS011;3730;50.856;12.776;2022-08-11T10:56:15;4.73;;;2.03;;
7377;SDS011;3730;50.856;12.776;2022-08-11T10:59:00;11.50;;;1.93;;
7377;SDS011;3730;50.856;12.776;2022-08-11T11:01:32;3.93;;;2.30;;
7377;SDS011;3730;50.856;12.776;2022-08-11T11:09:23;2.50;;;2.30;;
7377;SDS011;3730;50.856;12.776;2022-08-11T11:11:52;5.73;;;2.03;;
7377;SDS011;3730;50.856;12.776;2022-08-11T11:14:39;6.57;;;2.40;;
7377;SDS011;3730;50.856;12.776;2022-08-11T11:20:25;7.43;;;2.47;;
7377;SDS011;3730;50.856;12.776;2022-08-11T11:23:09;2.60;;;2.23;;
7377;SDS011;3730;50.856;12.776;2022-08-11T11:34:14;5.68;;;2.40;;
7377;SDS011;3730;50.856;12.776;2022-08-11T11:36:57;7.93;;;2.42;;
7377;SDS011;3730;50.856;12.776;2022-08-11T11:39:26;3.42;;;2.35;;
7377;SDS011;3730;50.856;12.776;2022-08-11T11:41:54;9.60;;;2.53;;
7377;SDS011;3730;50.856;12.776;2022-08-11T11:44:23;2.78;;;1.98;;
7377;SDS011;3730;50.856;12.776;2022-08-11T11:46:50;17.98;;;3.33;;
7377;SDS011;3730;50.856;12.776;2022-08-11T11:49:17;4.63;;;2.15;;
7377;SDS011;3730;50.856;12.776;2022-08-11T11:51:45;3.53;;;1.90;;
7377;SDS011;3730;50.856;12.776;2022-08-11T11:54:14;2.75;;;1.70;;
7377;SDS011;3730;50.856;12.776;2022-08-11T11:56:45;5.28;;;2.00;;
7377;SDS011;3730;50.856;12.776;2022-08-11T11:59:12;4.90;;;1.98;;
7377;SDS011;3730;50.856;12.776;2022-08-11T12:01:57;5.78;;;2.30;;
7377;SDS011;3730;50.856;12.776;2022-08-11T12:04:24;2.25;;;2.08;;
7377;SDS011;3730;50.856;12.776;2022-08-11T12:06:50;3.17;;;1.85;;
7377;SDS011;3730;50.856;12.776;2022-08-11T12:09:37;8.10;;;2.33;;
7377;SDS011;3730;50.856;12.776;2022-08-11T12:12:05;2.63;;;2.28;;
7377;SDS011;3730;50.856;12.776;2022-08-11T12:14:50;2.95;;;2.40;;
7377;SDS011;3730;50.856;12.776;2022-08-11T12:17:17;5.57;;;2.22;;
7377;SDS011;3730;50.856;12.776;2022-08-11T12:19:43;7.00;;;2.38;;
7377;SDS011;3730;50.856;12.776;2022-08-11T12:22:10;6.72;;;2.60;;
7377;SDS011;3730;50.856;12.776;2022-08-11T12:24:56;2.20;;;2.10;;
7377;SDS011;3730;50.856;12.776;2022-08-11T12:27:42;4.70;;;2.30;;
7377;SDS011;3730;50.856;12.776;2022-08-11T12:30:10;3.17;;;2.30;;
7377;SDS011;3730;50.856;12.776;2022-08-11T12:32:39;4.53;;;2.20;;
7377;SDS011;3730;50.856;12.776;2022-08-11T12:35:06;3.40;;;2.10;;
7377;SDS011;3730;50.856;12.776;2022-08-11T12:37:40;5.97;;;2.30;;
7377;SDS011;3730;50.856;12.776;2022-08-11T12:40:11;13.98;;;3.33;;
7377;SDS011;3730;50.856;12.776;2022-08-11T12:42:58;4.97;;;2.30;;
7377;SDS011;3730;50.856;12.776;2022-08-11T12:45:44;8.13;;;2.10;;
7377;SDS011;3730;50.856;12.776;2022-08-11T12:48:16;8.75;;;2.72;;
7377;SDS011;3730;50.856;12.776;2022-08-11T12:51:07;6.78;;;2.20;;
7377;SDS011;3730;50.856;12.776;2022-08-11T12:53:56;2.58;;;2.38;;
7377;SDS011;3730;50.856;12.776;2022-08-11T12:56:30;2.28;;;2.03;;
7377;SDS011;3730;50.856;12.776;2022-08-11T12:59:23;3.05;;;2.20;;
7377;SDS011;3730;50.856;12.776;2022-08-11T13:02:16;8.70;;;2.10;;
7377;SDS011;3730;50.856;12.776;2022-08-11T13:05:03;3.97;;;2.55;;
7377;SDS011;3730;50.856;12.776;2022-08-11T13:07:33;6.32;;;2.22;;
7377;SDS011;3730;50.856;12.776;2022-08-11T13:10:03;8.88;;;1.92;;
7377;SDS011;3730;50.856;12.776;2022-08-11T13:12:31;9.55;;;3.08;;
7377;SDS011;3730;50.856;12.776;2022-08-11T13:15:17;2.03;;;1.80;;
7377;SDS011;3730;50.856;12.776;2022-08-11T13:17:44;3.53;;;2.10;;
7377;SDS011;3730;50.856;12.776;2022-08-11T13:20:14;4.82;;;1.80;;
7377;SDS011;3730;50.856;12.776;2022-08-11T13:22:47;3.33;;;1.70;;
7377;SDS011;3730;50.856;12.776;2022-08-11T13:25:18;6.35;;;2.03;;
7377;SDS011;3730;50.856;12.776;2022-08-11T13:27:46;5.22;;;1.77;;
7377;SDS011;3730;50.856;12.776;2022-08-11T13:30:16;5.18;;;2.13;;
7377;SDS011;3730;50.856;12.776;2022-08-11T13:33:01;2.08;;;1.88;;
7377;SDS011;3730;50.856;12.776;2022-08-11T13:35:32;5.53;;;1.83;;
7377;SDS011;3730;50.856;12.776;2022-08-11T13:38:00;4.63;;;2.20;;
7377;SDS011;3730;50.856;12.776;2022-08-11T13:40:28;8.15;;;2.40;;
7377;SDS011;3730;50.856;12.776;2022-08-11T13:42:54;4.07;;;2.28;;
7377;SDS011;3730;50.856;12.776;2022-08-11T13:45:23;5.35;;;2.00;;
7377;SDS011;3730;50.856;12.776;2022-08-11T13:47:51;5.80;;;2.00;;
7377;SDS011;3730;50.856;12.776;2022-08-11T13:50:20;3.17;;;2.08;;
7377;SDS011;3730;50.856;12.776;2022-08-11T13:53:08;4.15;;;1.95;;
7377;SDS011;3730;50.856;12.776;2022-08-11T13:55:36;2.50;;;2.13;;
7377;SDS011;3730;50.856;12.776;2022-08-11T13:58:04;6.18;;;1.90;;
7377;SDS011;3730;50.856;12.776;2022-08-11T14:00:31;3.47;;;2.17;;
7377;SDS011;3730;50.856;12.776;2022-08-11T14:02:57;3.45;;;1.55;;
7377;SDS011;3730;50.856;12.776;2022-08-11T14:05:35;3.30;;;1.73;;
7377;SDS011;3730;50.856;12.776;2022-08-11T14:08:08;2.63;;;1.80;;
7377;SDS011;3730;50.856;12.776;2022-08-11T14:10:37;3.08;;;1.95;;
7377;SDS011;3730;50.856;12.776;2022-08-11T14:13:07;6.40;;;2.08;;
7377;SDS011;3730;50.856;12.776;2022-08-11T14:15:58;2.78;;;1.50;;
7377;SDS011;3730;50.856;12.776;2022-08-11T14:18:29;3.65;;;1.45;;
7377;SDS011;3730;50.856;12.776;2022-08-11T14:20:57;4.30;;;1.80;;
7377;SDS011;3730;50.856;12.776;2022-08-11T14:23:50;10.98;;;2.10;;
7377;SDS011;3730;50.856;12.776;2022-08-11T14:26:19;2.70;;;1.80;;
7377;SDS011;3730;50.856;12.776;2022-08-11T14:29:04;2.33;;;1.73;;
7377;SDS011;3730;50.856;12.776;2022-08-11T14:31:33;1.65;;;1.40;;
7377;SDS011;3730;50.856;12.776;2022-08-11T14:34:03;1.65;;;1.55;;
7377;SDS011;3730;50.856;12.776;2022-08-11T14:36:32;5.82;;;1.75;;
7377;SDS011;3730;50.856;12.776;2022-08-11T14:39:00;4.18;;;1.52;;
7377;SDS011;3730;50.856;12.776;2022-08-11T14:41:31;4.93;;;2.00;;
7377;SDS011;3730;50.856;12.776;2022-08-11T14:44:15;1.73;;;1.63;;
7377;SDS011;3730;50.856;12.776;2022-08-11T14:47:00;17.30;;;2.45;;
7377;SDS011;3730;50.856;12.776;2022-08-11T14:49:39;5.53;;;1.60;;
7377;SDS011;3730;50.856;12.776;2022-08-11T14:52:06;1.52;;;1.42;;
7377;SDS011;3730;50.856;12.776;2022-08-11T14:54:41;5.05;;;1.60;;
7377;SDS011;3730;50.856;12.776;2022-08-11T14:57:26;3.55;;;1.50;;
7377;SDS011;3730;50.856;12.776;2022-08-11T14:59:53;1.65;;;1.40;;
7377;SDS011;3730;50.856;12.776;2022-08-11T15:02:20;3.60;;;1.50;;
7377;SDS011;3730;50.856;12.776;2022-08-11T15:05:05;3.45;;;1.63;;
7377;SDS011;3730;50.856;12.776;2022-08-11T15:07:32;2.67;;;1.70;;
7377;SDS011;3730;50.856;12.776;2022-08-11T15:10:00;3.08;;;1.50;;
7377;SDS011;3730;50.856;12.776;2022-08-11T15:12:28;5.53;;;2.00;;
7377;SDS011;3730;50.856;12.776;2022-08-11T15:14:55;3.83;;;1.75;;
7377;SDS011;3730;50.856;12.776;2022-08-11T15:17:40;4.15;;;1.50;;
7377;SDS011;3730;50.856;12.776;2022-08-11T15:20:12;7.25;;;1.90;;
7377;SDS011;3730;50.856;12.776;2022-08-11T15:22:58;3.58;;;1.40;;
7377;SDS011;3730;50.856;12.776;2022-08-11T15:25:44;1.58;;;1.35;;
7377;SDS011;3730;50.856;12.776;2022-08-11T15:28:14;3.47;;;1.20;;
7377;SDS011;3730;50.856;12.776;2022-08-11T15:31:01;5.38;;;1.60;;
7377;SDS011;3730;50.856;12.776;2022-08-11T15:34:05;3.42;;;1.70;;
7377;SDS011;3730;50.856;12.776;2022-08-11T15:36:57;4.75;;;1.80;;
7377;SDS011;3730;50.856;12.776;2022-08-11T15:39:49;2.00;;;1.52;;
7377;SDS011;3730;50.856;12.776;2022-08-11T15:42:55;6.00;;;1.65;;
7377;SDS011;3730;50.856;12.776;2022-08-11T15:45:40;3.13;;;1.42;;
7377;SDS011;3730;50.856;12.776;2022-08-11T15:48:57;1.50;;;1.40;;
7377;SDS011;3730;50.856;12.776;2022-08-11T15:51:10;4.45;;;1.13;;
7377;SDS011;3730;50.856;12.776;2022-08-11T15:53:49;6.63;;;1.42;;
7377;SDS011;3730;50.856;12.776;2022-08-11T15:56:20;1.92;;;1.60;;
7377;SDS011;3730;50.856;12.776;2022-08-11T15:58:49;2.35;;;1.33;;
7377;SDS011;3730;50.856;12.776;2022-08-11T16:01:35;3.22;;;1.27;;
7377;SDS011;3730;50.856;12.776;2022-08-11T16:04:24;1.67;;;1.30;;
7377;SDS011;3730;50.856;12.776;2022-08-11T16:09:49;1.38;;;1.23;;
7377;SDS011;3730;50.856;12.776;2022-08-11T16:12:17;5.63;;;1.20;;
7377;SDS011;3730;50.856;12.776;2022-08-11T16:14:47;1.30;;;1.20;;
7377;SDS011;3730;50.856;12.776;2022-08-11T16:17:45;1.17;;;1.08;;
7377;SDS011;3730;50.856;12.776;2022-08-11T16:20:14;2.55;;;1.08;;
7377;SDS011;3730;50.856;12.776;2022-08-11T16:22:41;1.05;;;0.95;;
7377;SDS011;3730;50.856;12.776;2022-08-11T16:25:11;2.08;;;1.00;;
7377;SDS011;3730;50.856;12.776;2022-08-11T16:27:46;1.40;;;1.30;;
7377;SDS011;3730;50.856;12.776;2022-08-11T16:30:14;1.27;;;1.17;;
7377;SDS011;3730;50.856;12.776;2022-08-11T16:32:42;2.25;;;1.10;;
7377;SDS011;3730;50.856;12.776;2022-08-11T16:35:16;2.30;;;1.45;;
7377;SDS011;3730;50.856;12.776;2022-08-11T16:38:02;1.73;;;1.05;;
7377;SDS011;3730;50.856;12.776;2022-08-11T16:40:50;1.55;;;1.30;;
7377;SDS011;3730;50.856;12.776;2022-08-11T16:43:17;2.65;;;1.10;;
7377;SDS011;3730;50.856;12.776;2022-08-11T16:46:04;2.13;;;1.20;;
7377;SDS011;3730;50.856;12.776;2022-08-11T16:48:50;1.00;;;1.00;;
7377;SDS011;3730;50.856;12.776;2022-08-11T16:51:17;4.93;;;1.20;;
7377;SDS011;3730;50.856;12.776;2022-08-11T16:53:45;3.80;;;1.20;;
7377;SDS011;3730;50.856;12.776;2022-08-11T16:56:17;1.60;;;1.50;;
7377;SDS011;3730;50.856;12.776;2022-08-11T16:58:49;1.95;;;1.38;;
7377;SDS011;3730;50.856;12.776;2022-08-11T17:01:36;2.20;;;1.30;;
7377;SDS011;3730;50.856;12.776;2022-08-11T17:07:04;3.10;;;1.30;;
7377;SDS011;3730;50.856;12.776;2022-08-11T17:09:59;1.30;;;1.20;;
7377;SDS011;3730;50.856;12.776;2022-08-11T17:12:48;2.30;;;1.30;;
7377;SDS011;3730;50.856;12.776;2022-08-11T17:15:34;1.67;;;1.30;;
7377;SDS011;3730;50.856;12.776;2022-08-11T17:18:21;2.70;;;1.02;;
7377;SDS011;3730;50.856;12.776;2022-08-11T17:21:04;1.38;;;1.27;;
7377;SDS011;3730;50.856;12.776;2022-08-11T17:23:32;2.38;;;1.30;;
7377;SDS011;3730;50.856;12.776;2022-08-11T17:26:38;2.35;;;1.42;;
7377;SDS011;3730;50.856;12.776;2022-08-11T17:29:45;1.20;;;1.10;;
7377;SDS011;3730;50.856;12.776;2022-08-11T17:32:16;1.42;;;1.00;;
7377;SDS011;3730;50.856;12.776;2022-08-11T17:35:03;3.05;;;1.40;;
7377;SDS011;3730;50.856;12.776;2022-08-11T17:37:52;1.58;;;1.10;;
7377;SDS011;3730;50.856;12.776;2022-08-11T17:40:20;1.58;;;1.40;;
7377;SDS011;3730;50.856;12.776;2022-08-11T17:42:50;1.35;;;1.25;;
7377;SDS011;3730;50.856;12.776;2022-08-11T17:45:37;1.48;;;1.30;;
7377;SDS011;3730;50.856;12.776;2022-08-11T17:48:25;1.55;;;1.25;;
7377;SDS011;3730;50.856;12.776;2022-08-11T17:51:16;1.40;;;1.20;;
7377;SDS011;3730;50.856;12.776;2022-08-11T17:54:02;4.25;;;1.40;;
7377;SDS011;3730;50.856;12.776;2022-08-11T17:56:48;2.00;;;1.30;;
7377;SDS011;3730;50.856;12.776;2022-08-11T17:59:34;2.00;;;1.35;;
7377;SDS011;3730;50.856;12.776;2022-08-11T18:02:24;2.78;;;1.50;;
7377;SDS011;3730;50.856;12.776;2022-08-11T18:05:16;3.92;;;1.50;;
7377;SDS011;3730;50.856;12.776;2022-08-11T18:07:44;1.67;;;1.58;;
7377;SDS011;3730;50.856;12.776;2022-08-11T18:10:31;2.33;;;1.70;;
7377;SDS011;3730;50.856;12.776;2022-08-11T18:13:18;3.88;;;1.75;;
7377;SDS011;3730;50.856;12.776;2022-08-11T18:16:04;1.92;;;1.35;;
7377;SDS011;3730;50.856;12.776;2022-08-11T18:18:48;4.67;;;1.47;;
7377;SDS011;3730;50.856;12.776;2022-08-11T18:21:32;2.83;;;1.50;;
7377;SDS011;3730;50.856;12.776;2022-08-11T18:24:18;2.83;;;1.60;;
7377;SDS011;3730;50.856;12.776;2022-08-11T18:27:05;6.22;;;1.60;;
7377;SDS011;3730;50.856;12.776;2022-08-11T18:29:52;1.57;;;1.47;;
7377;SDS011;3730;50.856;12.776;2022-08-11T18:32:38;2.23;;;1.70;;
7377;SDS011;3730;50.856;12.776;2022-08-11T18:35:24;3.80;;;1.70;;
7377;SDS011;3730;50.856;12.776;2022-08-11T18:38:10;1.73;;;1.63;;
7377;SDS011;3730;50.856;12.776;2022-08-11T18:40:56;2.70;;;1.50;;
7377;SDS011;3730;50.856;12.776;2022-08-11T18:43:44;1.57;;;1.47;;
7377;SDS011;3730;50.856;12.776;2022-08-11T18:46:31;1.70;;;1.60;;
7377;SDS011;3730;50.856;12.776;2022-08-11T18:49:18;2.03;;;1.53;;
7377;SDS011;3730;50.856;12.776;2022-08-11T18:52:06;4.70;;;1.80;;
7377;SDS011;3730;50.856;12.776;2022-08-11T18:54:51;2.60;;;1.70;;
7377;SDS011;3730;50.856;12.776;2022-08-11T18:57:40;2.40;;;1.70;;
7377;SDS011;3730;50.856;12.776;2022-08-11T19:00:25;1.70;;;1.60;;
7377;SDS011;3730;50.856;12.776;2022-08-11T19:03:11;6.00;;;2.03;;
7377;SDS011;3730;50.856;12.776;2022-08-11T19:05:59;3.50;;;1.80;;
7377;SDS011;3730;50.856;12.776;2022-08-11T19:08:46;4.23;;;1.90;;
7377;SDS011;3730;50.856;12.776;2022-08-11T19:11:35;4.27;;;1.60;;
7377;SDS011;3730;50.856;12.776;2022-08-11T19:14:20;1.80;;;1.50;;
7377;SDS011;3730;50.856;12.776;2022-08-11T19:17:06;1.60;;;1.50;;
7377;SDS011;3730;50.856;12.776;2022-08-11T19:19:54;3.23;;;1.70;;
7377;SDS011;3730;50.856;12.776;2022-08-11T19:22:39;3.87;;;1.80;;
7377;SDS011;3730;50.856;12.776;2022-08-11T19:25:26;1.90;;;1.60;;
7377;SDS011;3730;50.856;12.776;2022-08-11T19:28:11;3.93;;;1.53;;
7377;SDS011;3730;50.856;12.776;2022-08-11T19:30:56;1.90;;;1.47;;
7377;SDS011;3730;50.856;12.776;2022-08-11T19:33:42;2.23;;;1.50;;